createdAt,value
2018-09-04T00:00:00.039Z,0
2018-09-04T00:01:01.446Z,0
2018-09-04T00:02:02.897Z,0
2018-09-04T00:03:04.349Z,0
2018-09-04T00:04:05.850Z,0
2018-09-04T00:05:07.142Z,0
2018-09-04T00:06:08.559Z,0
2018-09-04T00:07:09.999Z,0
2018-09-04T00:08:11.435Z,0
2018-09-04T00:09:12.871Z,0
2018-09-04T00:10:14.313Z,0
2018-09-04T00:11:15.764Z,0
2018-09-04T00:12:17.178Z,0
2018-09-04T00:13:18.603Z,0
2018-09-04T00:14:20.091Z,0
2018-09-04T00:15:21.488Z,0
2018-09-04T00:16:22.908Z,0
2018-09-04T00:17:24.384Z,0
2018-09-04T00:18:25.808Z,0
2018-09-04T00:19:27.202Z,0
2018-09-04T00:20:28.643Z,0
2018-09-04T00:21:30.040Z,0
2018-09-04T00:22:31.453Z,0
2018-09-04T00:23:32.843Z,0
2018-09-04T00:24:34.249Z,0
2018-09-04T00:25:35.691Z,0
2018-09-04T00:26:37.135Z,0
2018-09-04T00:27:38.606Z,0
2018-09-04T00:28:40.099Z,0
2018-09-04T00:29:41.492Z,0
2018-09-04T00:30:42.891Z,0
2018-09-04T00:31:44.286Z,0
2018-09-04T00:32:45.722Z,0
2018-09-04T00:33:47.115Z,0
2018-09-04T00:34:48.564Z,0
2018-09-04T00:35:49.970Z,0
2018-09-04T00:36:51.397Z,0
2018-09-04T00:37:52.972Z,0
2018-09-04T00:38:54.404Z,0
2018-09-04T00:39:55.802Z,0
2018-09-04T00:40:57.255Z,0
2018-09-04T00:41:58.825Z,0
2018-09-04T00:43:00.294Z,0
2018-09-04T00:44:01.714Z,0
2018-09-04T00:45:03.139Z,0
2018-09-04T00:46:04.515Z,0
2018-09-04T00:47:06.075Z,0
2018-09-04T00:48:07.646Z,0
2018-09-04T00:49:09.045Z,0
2018-09-04T00:50:10.444Z,0
2018-09-04T00:51:11.893Z,0
2018-09-04T00:52:13.322Z,0
2018-09-04T00:53:14.779Z,0
2018-09-04T00:54:16.172Z,0
2018-09-04T00:55:17.580Z,0
2018-09-04T00:56:18.973Z,0
2018-09-04T00:57:20.403Z,0
2018-09-04T00:58:21.822Z,0
2018-09-04T00:59:23.239Z,0
2018-09-04T01:00:24.633Z,0
2018-09-04T01:01:26.034Z,0
2018-09-04T01:02:27.491Z,0
2018-09-04T01:03:28.983Z,0
2018-09-04T01:04:30.471Z,0
2018-09-04T01:05:31.860Z,0
2018-09-04T01:06:33.292Z,0
2018-09-04T01:07:34.706Z,0
2018-09-04T01:08:36.175Z,0
2018-09-04T01:09:37.568Z,0
2018-09-04T01:10:39.130Z,0
2018-09-04T01:11:40.573Z,0
2018-09-04T01:12:42.051Z,0
2018-09-04T01:13:43.543Z,0
2018-09-04T01:14:44.989Z,0
2018-09-04T01:15:46.465Z,0
2018-09-04T01:16:47.870Z,0
2018-09-04T01:17:49.304Z,0
2018-09-04T01:18:50.715Z,0
2018-09-04T01:19:52.186Z,0
2018-09-04T01:20:53.646Z,0
2018-09-04T01:21:55.089Z,0
2018-09-04T01:22:56.582Z,0
2018-09-04T01:23:58.054Z,0
2018-09-04T01:24:59.450Z,0
2018-09-04T01:26:00.848Z,0
2018-09-04T01:27:02.280Z,0
2018-09-04T01:28:03.673Z,0
2018-09-04T01:29:05.074Z,0
2018-09-04T01:30:06.523Z,0
2018-09-04T01:31:08.002Z,0
2018-09-04T01:32:09.485Z,0
2018-09-04T01:33:10.887Z,0
2018-09-04T01:34:12.339Z,0
2018-09-04T01:35:13.736Z,0
2018-09-04T01:36:15.226Z,0
2018-09-04T01:37:16.660Z,0
2018-09-04T01:38:18.071Z,0
2018-09-04T01:39:19.514Z,0
2018-09-04T01:40:20.949Z,0
2018-09-04T01:41:22.355Z,0
2018-09-04T01:42:23.760Z,0
2018-09-04T01:43:25.185Z,0
2018-09-04T01:44:26.659Z,0
2018-09-04T01:45:28.053Z,0
2018-09-04T01:46:29.495Z,0
2018-09-04T01:47:30.884Z,0
2018-09-04T01:48:32.344Z,0
2018-09-04T01:49:33.836Z,0
2018-09-04T01:50:35.219Z,0
2018-09-04T01:51:36.591Z,0
2018-09-04T01:52:38.022Z,0
2018-09-04T01:53:39.415Z,0
2018-09-04T01:54:40.811Z,0
2018-09-04T01:55:42.258Z,0
2018-09-04T01:56:43.648Z,0
2018-09-04T01:57:45.112Z,0
2018-09-04T01:58:46.501Z,0
2018-09-04T01:59:47.917Z,0
2018-09-04T02:00:49.351Z,0
2018-09-04T02:01:50.832Z,0
2018-09-04T02:02:52.271Z,0
2018-09-04T02:03:53.739Z,0
2018-09-04T02:04:55.255Z,0
2018-09-04T02:05:56.761Z,0
2018-09-04T02:06:58.260Z,0
2018-09-04T02:07:59.696Z,0
2018-09-04T02:09:01.115Z,0
2018-09-04T02:10:02.514Z,0
2018-09-04T02:11:04.014Z,0
2018-09-04T02:12:05.435Z,0
2018-09-04T02:13:06.881Z,0
2018-09-04T02:14:08.234Z,0
2018-09-04T02:15:09.648Z,0
2018-09-04T02:16:11.044Z,0
2018-09-04T02:17:12.465Z,0
2018-09-04T02:18:13.931Z,0
2018-09-04T02:19:15.416Z,0
2018-09-04T02:20:16.842Z,0
2018-09-04T02:21:18.265Z,0
2018-09-04T02:22:19.695Z,0
2018-09-04T02:23:21.182Z,0
2018-09-04T02:24:22.596Z,0
2018-09-04T02:25:24.034Z,0
2018-09-04T02:26:25.472Z,0
2018-09-04T02:27:26.862Z,0
2018-09-04T02:28:28.264Z,0
2018-09-04T02:29:29.654Z,0
2018-09-04T02:30:31.125Z,0
2018-09-04T02:31:32.592Z,0
2018-09-04T02:32:34.057Z,0
2018-09-04T02:33:35.521Z,0
2018-09-04T02:34:36.925Z,0
2018-09-04T02:35:38.359Z,0
2018-09-04T02:36:39.904Z,0
2018-09-04T02:37:41.342Z,0
2018-09-04T02:38:42.806Z,0
2018-09-04T02:39:44.265Z,0
2018-09-04T02:40:45.661Z,0
2018-09-04T02:41:47.049Z,0
2018-09-04T02:42:48.499Z,0
2018-09-04T02:43:49.949Z,0
2018-09-04T02:44:51.356Z,0
2018-09-04T02:45:52.761Z,0
2018-09-04T02:46:54.241Z,0
2018-09-04T02:47:56.045Z,0
2018-09-04T02:48:57.491Z,0
2018-09-04T02:49:58.944Z,0
2018-09-04T02:51:00.380Z,0
2018-09-04T02:52:01.795Z,0
2018-09-04T02:53:03.242Z,0
2018-09-04T02:54:04.705Z,0
2018-09-04T02:55:06.155Z,0
2018-09-04T02:56:07.518Z,0
2018-09-04T02:57:08.990Z,0
2018-09-04T02:58:10.413Z,0
2018-09-04T02:59:11.814Z,0
2018-09-04T03:00:13.267Z,0
2018-09-04T03:01:14.698Z,0
2018-09-04T03:02:16.125Z,0
2018-09-04T03:03:17.604Z,0
2018-09-04T03:04:19.048Z,0
2018-09-04T03:05:20.511Z,0
2018-09-04T03:06:21.904Z,0
2018-09-04T03:07:23.304Z,0
2018-09-04T03:08:24.749Z,0
2018-09-04T03:09:26.212Z,0
2018-09-04T03:10:27.668Z,0
2018-09-04T03:11:29.063Z,0
2018-09-04T03:12:30.526Z,0
2018-09-04T03:13:32.023Z,0
2018-09-04T03:14:33.385Z,0
2018-09-04T03:15:34.776Z,0
2018-09-04T03:16:36.169Z,0
2018-09-04T03:17:37.665Z,0
2018-09-04T03:18:39.075Z,0
2018-09-04T03:19:40.473Z,0
2018-09-04T03:20:41.861Z,0
2018-09-04T03:21:43.267Z,0
2018-09-04T03:22:44.746Z,0
2018-09-04T03:23:46.170Z,0
2018-09-04T03:24:47.661Z,0
2018-09-04T03:25:49.074Z,0
2018-09-04T03:26:50.480Z,0
2018-09-04T03:27:51.951Z,0
2018-09-04T03:28:53.351Z,0
2018-09-04T03:29:54.788Z,0
2018-09-04T03:30:56.214Z,0
2018-09-04T03:31:57.825Z,0
2018-09-04T03:32:59.238Z,0
2018-09-04T03:34:00.726Z,0
2018-09-04T03:35:02.170Z,0
2018-09-04T03:36:03.622Z,0
2018-09-04T03:37:05.101Z,0
2018-09-04T03:38:06.523Z,0
2018-09-04T03:39:07.979Z,0
2018-09-04T03:40:09.376Z,0
2018-09-04T03:41:10.786Z,0
2018-09-04T03:42:12.320Z,0
2018-09-04T03:43:13.665Z,0
2018-09-04T03:44:15.172Z,0
2018-09-04T03:45:16.455Z,0
2018-09-04T03:46:17.929Z,0
2018-09-04T03:47:19.344Z,0
2018-09-04T03:48:20.783Z,0
2018-09-04T03:49:22.241Z,0
2018-09-04T03:50:23.665Z,0
2018-09-04T03:51:25.030Z,0
2018-09-04T03:52:26.545Z,0
2018-09-04T03:53:27.961Z,0
2018-09-04T03:54:29.341Z,0
2018-09-04T03:55:30.740Z,0
2018-09-04T03:56:32.128Z,0
2018-09-04T03:57:33.549Z,0
2018-09-04T03:58:34.947Z,0
2018-09-04T03:59:36.373Z,0
2018-09-04T04:00:37.774Z,0
2018-09-04T04:01:39.197Z,0
2018-09-04T04:02:40.630Z,0
2018-09-04T04:03:42.057Z,0
2018-09-04T04:04:43.525Z,0
2018-09-04T04:05:45.017Z,0
2018-09-04T04:06:46.452Z,0
2018-09-04T04:07:47.844Z,0
2018-09-04T04:08:49.266Z,0
2018-09-04T04:09:50.692Z,0
2018-09-04T04:10:52.010Z,0
2018-09-04T04:11:53.451Z,0
2018-09-04T04:12:54.975Z,0
2018-09-04T04:13:56.413Z,0
2018-09-04T04:14:57.808Z,0
2018-09-04T04:15:59.339Z,0
2018-09-04T04:17:01.093Z,0
2018-09-04T04:18:02.333Z,0
2018-09-04T04:19:03.759Z,0
2018-09-04T04:20:05.247Z,0
2018-09-04T04:21:06.663Z,0
2018-09-04T04:22:08.098Z,0
2018-09-04T04:23:09.522Z,0
2018-09-04T04:24:10.972Z,0
2018-09-04T04:25:12.482Z,4
2018-09-04T04:26:13.967Z,4
2018-09-04T04:27:15.389Z,0
2018-09-04T04:28:16.888Z,0
2018-09-04T04:29:18.324Z,0
2018-09-04T04:30:19.830Z,4
2018-09-04T04:31:21.226Z,0
2018-09-04T04:32:22.697Z,4
2018-09-04T04:33:24.121Z,4
2018-09-04T04:34:25.537Z,4
2018-09-04T04:35:27.223Z,8
2018-09-04T04:36:28.657Z,8
2018-09-04T04:37:30.089Z,12
2018-09-04T04:38:31.508Z,12
2018-09-04T04:39:32.941Z,12
2018-09-04T04:40:34.420Z,12
2018-09-04T04:41:35.888Z,16
2018-09-04T04:42:37.328Z,20
2018-09-04T04:43:38.844Z,20
2018-09-04T04:44:40.655Z,24
2018-09-04T04:45:42.046Z,28
2018-09-04T04:46:43.465Z,32
2018-09-04T04:47:44.966Z,36
2018-09-04T04:48:46.375Z,40
2018-09-04T04:49:47.781Z,44
2018-09-04T04:50:49.206Z,48
2018-09-04T04:51:50.912Z,52
2018-09-04T04:52:52.368Z,52
2018-09-04T04:53:53.797Z,60
2018-09-04T04:54:55.186Z,68
2018-09-04T04:55:56.622Z,72
2018-09-04T04:56:58.016Z,76
2018-09-04T04:57:59.480Z,84
2018-09-04T04:59:00.976Z,88
2018-09-04T05:00:02.487Z,100
2018-09-04T05:01:03.910Z,100
2018-09-04T05:02:05.315Z,112
2018-09-04T05:03:06.721Z,120
2018-09-04T05:04:08.193Z,124
2018-09-04T05:05:11.153Z,132
2018-09-04T05:06:11.705Z,136
2018-09-04T05:07:13.154Z,148
2018-09-04T05:08:15.161Z,156
2018-09-04T05:09:16.556Z,160
2018-09-04T05:10:17.955Z,172
2018-09-04T05:11:19.393Z,180
2018-09-04T05:12:20.797Z,184
2018-09-04T05:13:22.263Z,196
2018-09-04T05:14:23.945Z,200
2018-09-04T05:15:25.357Z,212
2018-09-04T05:16:26.849Z,228
2018-09-04T05:17:28.314Z,244
2018-09-04T05:18:29.747Z,260
2018-09-04T05:19:31.161Z,264
2018-09-04T05:20:32.567Z,272
2018-09-04T05:21:33.975Z,280
2018-09-04T05:22:35.499Z,288
2018-09-04T05:23:36.892Z,300
2018-09-04T05:24:38.349Z,308
2018-09-04T05:25:39.819Z,324
2018-09-04T05:26:41.292Z,340
2018-09-04T05:27:42.706Z,360
2018-09-04T05:28:44.128Z,372
2018-09-04T05:29:45.693Z,384
2018-09-04T05:30:47.127Z,396
2018-09-04T05:31:48.553Z,400
2018-09-04T05:32:49.987Z,408
2018-09-04T05:33:51.379Z,416
2018-09-04T05:34:52.779Z,424
2018-09-04T05:35:54.311Z,432
2018-09-04T05:36:56.219Z,436
2018-09-04T05:37:58.133Z,444
2018-09-04T05:38:59.598Z,448
2018-09-04T05:40:01.033Z,456
2018-09-04T05:41:02.572Z,468
2018-09-04T05:42:04.045Z,476
2018-09-04T05:43:05.501Z,484
2018-09-04T05:44:06.939Z,496
2018-09-04T05:45:08.424Z,508
2018-09-04T05:46:09.995Z,528
2018-09-04T05:47:11.487Z,548
2018-09-04T05:48:12.969Z,568
2018-09-04T05:49:14.372Z,588
2018-09-04T05:50:15.820Z,596
2018-09-04T05:51:17.262Z,608
2018-09-04T05:52:18.705Z,628
2018-09-04T05:53:20.188Z,660
2018-09-04T05:54:21.613Z,696
2018-09-04T05:55:23.072Z,728
2018-09-04T05:56:24.487Z,752
2018-09-04T05:57:25.958Z,768
2018-09-04T05:58:27.434Z,768
2018-09-04T05:59:29.093Z,768
2018-09-04T06:00:30.544Z,780
2018-09-04T06:01:32.010Z,788
2018-09-04T06:02:33.410Z,808
2018-09-04T06:03:34.890Z,824
2018-09-04T06:04:36.312Z,848
2018-09-04T06:05:37.707Z,872
2018-09-04T06:06:39.173Z,896
2018-09-04T06:07:40.646Z,920
2018-09-04T06:08:42.135Z,936
2018-09-04T06:09:43.562Z,952
2018-09-04T06:10:44.985Z,956
2018-09-04T06:11:46.407Z,960
2018-09-04T06:12:47.969Z,960
2018-09-04T06:13:49.343Z,968
2018-09-04T06:14:50.754Z,980
2018-09-04T06:15:52.149Z,1000
2018-09-04T06:16:53.644Z,1012
2018-09-04T06:17:55.053Z,1036
2018-09-04T06:18:56.476Z,1056
2018-09-04T06:19:57.964Z,1084
2018-09-04T06:20:59.392Z,1108
2018-09-04T06:22:00.872Z,1144
2018-09-04T06:23:02.360Z,1176
2018-09-04T06:24:03.946Z,1208
2018-09-04T06:25:05.349Z,1264
2018-09-04T06:26:06.751Z,1312
2018-09-04T06:27:08.195Z,1352
2018-09-04T06:28:09.628Z,1384
2018-09-04T06:29:11.051Z,1396
2018-09-04T06:30:12.490Z,1412
2018-09-04T06:31:13.887Z,1536
2018-09-04T06:32:15.282Z,1596
2018-09-04T06:33:16.746Z,1696
2018-09-04T06:34:18.151Z,1788
2018-09-04T06:35:19.545Z,1944
2018-09-04T06:36:20.974Z,1952
2018-09-04T06:37:22.381Z,2012
2018-09-04T06:38:23.873Z,2100
2018-09-04T06:39:25.368Z,2076
2018-09-04T06:40:26.759Z,2096
2018-09-04T06:41:28.156Z,2052
2018-09-04T06:42:29.560Z,2012
2018-09-04T06:43:31.006Z,1960
2018-09-04T06:44:32.448Z,2016
2018-09-04T06:45:33.835Z,2020
2018-09-04T06:46:35.425Z,2068
2018-09-04T06:47:36.737Z,2124
2018-09-04T06:48:38.167Z,2112
2018-09-04T06:49:39.565Z,2116
2018-09-04T06:50:40.968Z,2104
2018-09-04T06:51:42.448Z,2144
2018-09-04T06:52:43.871Z,2156
2018-09-04T06:53:45.301Z,2212
2018-09-04T06:54:46.812Z,2256
2018-09-04T06:55:48.049Z,2292
2018-09-04T06:56:49.492Z,2284
2018-09-04T06:57:50.900Z,2356
2018-09-04T06:58:52.386Z,2448
2018-09-04T06:59:53.852Z,2476
2018-09-04T07:00:55.324Z,2364
2018-09-04T07:01:56.706Z,2428
2018-09-04T07:02:58.178Z,2508
2018-09-04T07:03:59.673Z,2360
2018-09-04T07:05:01.115Z,2428
2018-09-04T07:06:02.571Z,2544
2018-09-04T07:07:04.002Z,2604
2018-09-04T07:08:05.539Z,2524
2018-09-04T07:09:07.046Z,2476
2018-09-04T07:10:08.529Z,2520
2018-09-04T07:11:10.031Z,2528
2018-09-04T07:12:11.461Z,2524
2018-09-04T07:13:12.874Z,2568
2018-09-04T07:14:14.270Z,2600
2018-09-04T07:15:15.988Z,2624
2018-09-04T07:16:17.439Z,2608
2018-09-04T07:17:18.887Z,2768
2018-09-04T07:18:20.330Z,2936
2018-09-04T07:19:21.732Z,3024
2018-09-04T07:20:23.159Z,3104
2018-09-04T07:21:24.557Z,3088
2018-09-04T07:22:25.995Z,3140
2018-09-04T07:23:27.508Z,3044
2018-09-04T07:24:28.912Z,2776
2018-09-04T07:25:30.415Z,2712
2018-09-04T07:26:31.890Z,3000
2018-09-04T07:27:33.304Z,3136
2018-09-04T07:28:34.723Z,2632
2018-09-04T07:29:36.220Z,2260
2018-09-04T07:30:37.636Z,2500
2018-09-04T07:31:39.139Z,3324
2018-09-04T07:32:40.616Z,3628
2018-09-04T07:33:42.098Z,2988
2018-09-04T07:34:43.497Z,2660
2018-09-04T07:35:44.938Z,2680
2018-09-04T07:36:46.393Z,2996
2018-09-04T07:37:47.800Z,3044
2018-09-04T07:38:49.282Z,2716
2018-09-04T07:39:50.681Z,2596
2018-09-04T07:40:52.131Z,3100
2018-09-04T07:41:53.572Z,3416
2018-09-04T07:42:55.061Z,3520
2018-09-04T07:43:56.480Z,3372
2018-09-04T07:44:57.878Z,3108
2018-09-04T07:45:59.322Z,3444
2018-09-04T07:47:00.761Z,3564
2018-09-04T07:48:02.208Z,4048
2018-09-04T07:49:03.614Z,4388
2018-09-04T07:50:05.111Z,4032
2018-09-04T07:51:06.645Z,3772
2018-09-04T07:52:08.066Z,3748
2018-09-04T07:53:09.557Z,3840
2018-09-04T07:54:11.159Z,4224
2018-09-04T07:55:12.788Z,4544
2018-09-04T07:56:14.261Z,4324
2018-09-04T07:57:15.773Z,4316
2018-09-04T07:58:17.220Z,4308
2018-09-04T07:59:18.698Z,3952
2018-09-04T08:00:20.180Z,3176
2018-09-04T08:01:21.634Z,3384
2018-09-04T08:02:23.087Z,3960
2018-09-04T08:03:24.993Z,4140
2018-09-04T08:04:27.300Z,3744
2018-09-04T08:05:28.950Z,3308
2018-09-04T08:06:30.421Z,3220
2018-09-04T08:07:31.828Z,3464
2018-09-04T08:08:33.305Z,3488
2018-09-04T08:09:34.849Z,3484
2018-09-04T08:10:36.330Z,4056
2018-09-04T08:11:37.736Z,4512
2018-09-04T08:12:39.151Z,4592
2018-09-04T08:13:40.608Z,4340
2018-09-04T08:14:42.059Z,4052
2018-09-04T08:15:43.844Z,3584
2018-09-04T08:16:45.251Z,3396
2018-09-04T08:17:46.744Z,3868
2018-09-04T08:18:48.121Z,4464
2018-09-04T08:19:49.639Z,4320
2018-09-04T08:20:51.068Z,4580
2018-09-04T08:21:52.437Z,4444
2018-09-04T08:22:53.890Z,3860
2018-09-04T08:23:55.287Z,4364
2018-09-04T08:24:56.692Z,6160
2018-09-04T08:25:58.113Z,6420
2018-09-04T08:26:59.822Z,5484
2018-09-04T08:28:01.265Z,4648
2018-09-04T08:29:02.753Z,5020
2018-09-04T08:30:04.233Z,5408
2018-09-04T08:31:05.774Z,6380
2018-09-04T08:32:07.194Z,6044
2018-09-04T08:33:08.671Z,5372
2018-09-04T08:34:10.008Z,5156
2018-09-04T08:35:11.422Z,5620
2018-09-04T08:36:12.838Z,6080
2018-09-04T08:37:14.399Z,6172
2018-09-04T08:38:15.856Z,6120
2018-09-04T08:39:17.385Z,6096
2018-09-04T08:40:18.890Z,6296
2018-09-04T08:41:21.857Z,6580
2018-09-04T08:42:23.356Z,6592
2018-09-04T08:43:24.909Z,6508
2018-09-04T08:44:26.377Z,6508
2018-09-04T08:45:27.835Z,6372
2018-09-04T08:46:29.267Z,6240
2018-09-04T08:47:30.734Z,6956
2018-09-04T08:48:32.130Z,7524
2018-09-04T08:49:33.568Z,6028
2018-09-04T08:50:35.190Z,5424
2018-09-04T08:51:36.511Z,6836
2018-09-04T08:52:38.006Z,7048
2018-09-04T08:53:39.567Z,6760
2018-09-04T08:54:40.917Z,7048
2018-09-04T08:55:42.394Z,7108
2018-09-04T08:56:43.974Z,7164
2018-09-04T08:57:45.438Z,7208
2018-09-04T08:58:46.943Z,7340
2018-09-04T08:59:48.406Z,7400
2018-09-04T09:00:50.004Z,7416
2018-09-04T09:01:51.345Z,7440
2018-09-04T09:02:52.818Z,7424
2018-09-04T09:03:54.499Z,7564
2018-09-04T09:04:55.845Z,7612
2018-09-04T09:05:57.327Z,7708
2018-09-04T09:06:58.825Z,7828
2018-09-04T09:08:00.246Z,7912
2018-09-04T09:09:01.699Z,7856
2018-09-04T09:10:03.236Z,8024
2018-09-04T09:11:04.573Z,7892
2018-09-04T09:12:06.001Z,7868
2018-09-04T09:13:07.453Z,8056
2018-09-04T09:14:08.890Z,8136
2018-09-04T09:15:10.355Z,8320
2018-09-04T09:16:11.794Z,8000
2018-09-04T09:17:15.001Z,8416
2018-09-04T09:18:16.260Z,8500
2018-09-04T09:19:17.692Z,8556
2018-09-04T09:20:19.089Z,8544
2018-09-04T09:21:20.522Z,8656
2018-09-04T09:22:22.116Z,8696
2018-09-04T09:23:23.739Z,8808
2018-09-04T09:24:25.148Z,8968
2018-09-04T09:25:26.694Z,9020
2018-09-04T09:26:28.118Z,9024
2018-09-04T09:27:29.571Z,9016
2018-09-04T09:28:30.979Z,9160
2018-09-04T09:29:32.388Z,8640
2018-09-04T09:30:33.800Z,8268
2018-09-04T09:31:35.204Z,7984
2018-09-04T09:32:36.617Z,8096
2018-09-04T09:33:38.089Z,8308
2018-09-04T09:34:39.593Z,8660
2018-09-04T09:35:41.207Z,8776
2018-09-04T09:36:42.781Z,8888
2018-09-04T09:37:44.137Z,9320
2018-09-04T09:38:45.795Z,9348
2018-09-04T09:39:47.330Z,9044
2018-09-04T09:40:48.771Z,8464
2018-09-04T09:41:50.174Z,7796
2018-09-04T09:42:51.643Z,8972
2018-09-04T09:43:53.086Z,9080
2018-09-04T09:44:54.528Z,9024
2018-09-04T09:45:56.040Z,8956
2018-09-04T09:46:57.615Z,8852
2018-09-04T09:47:59.083Z,9092
2018-09-04T09:49:00.669Z,9352
2018-09-04T09:50:02.215Z,9428
2018-09-04T09:51:03.791Z,9244
2018-09-04T09:52:05.537Z,9220
2018-09-04T09:53:07.057Z,9404
2018-09-04T09:54:08.593Z,9300
2018-09-04T09:55:10.000Z,9044
2018-09-04T09:56:11.453Z,9472
2018-09-04T09:57:13.115Z,9316
2018-09-04T09:58:14.615Z,8956
2018-09-04T09:59:16.116Z,8368
2018-09-04T10:00:17.722Z,7760
2018-09-04T10:01:19.312Z,6604
2018-09-04T10:02:21.003Z,6808
2018-09-04T10:03:22.215Z,6828
2018-09-04T10:04:23.736Z,7728
2018-09-04T10:05:25.137Z,10220
2018-09-04T10:06:26.542Z,10792
2018-09-04T10:07:28.106Z,10864
2018-09-04T10:08:29.613Z,11416
2018-09-04T10:09:31.060Z,10684
2018-09-04T10:10:32.512Z,10496
2018-09-04T10:11:33.877Z,10448
2018-09-04T10:12:35.360Z,10600
2018-09-04T10:13:36.816Z,10460
2018-09-04T10:14:38.252Z,10964
2018-09-04T10:15:39.660Z,12416
2018-09-04T10:16:41.147Z,12712
2018-09-04T10:17:42.600Z,12092
2018-09-04T10:18:44.001Z,11328
2018-09-04T10:19:45.469Z,12156
2018-09-04T10:20:46.875Z,11408
2018-09-04T10:21:48.320Z,11660
2018-09-04T10:22:49.815Z,12456
2018-09-04T10:23:51.283Z,13584
2018-09-04T10:24:52.755Z,13776
2018-09-04T10:25:54.210Z,14180
2018-09-04T10:26:55.626Z,14532
2018-09-04T10:27:57.024Z,14600
2018-09-04T10:28:58.498Z,14240
2018-09-04T10:29:59.904Z,14320
2018-09-04T10:31:01.369Z,14504
2018-09-04T10:32:02.836Z,14632
2018-09-04T10:33:04.203Z,15188
2018-09-04T10:34:05.667Z,15516
2018-09-04T10:35:07.150Z,14888
2018-09-04T10:36:08.599Z,14548
2018-09-04T10:37:10.084Z,14284
2018-09-04T10:38:11.634Z,14836
2018-09-04T10:39:13.141Z,15876
2018-09-04T10:40:14.597Z,16320
2018-09-04T10:41:16.003Z,14800
2018-09-04T10:42:17.404Z,15104
2018-09-04T10:43:18.805Z,14852
2018-09-04T10:44:20.300Z,14632
2018-09-04T10:45:21.788Z,14660
2018-09-04T10:46:23.288Z,15260
2018-09-04T10:47:24.792Z,15276
2018-09-04T10:48:26.255Z,15628
2018-09-04T10:49:27.697Z,15052
2018-09-04T10:50:29.483Z,14632
2018-09-04T10:51:30.927Z,14072
2018-09-04T10:52:32.372Z,14984
2018-09-04T10:53:33.822Z,15480
2018-09-04T10:54:35.285Z,15196
2018-09-04T10:55:36.761Z,15196
2018-09-04T10:56:38.196Z,15040
2018-09-04T10:57:39.690Z,15468
2018-09-04T10:58:41.109Z,15928
2018-09-04T10:59:42.538Z,15892
2018-09-04T11:00:44.020Z,15068
2018-09-04T11:01:45.423Z,15476
2018-09-04T11:02:46.916Z,14520
2018-09-04T11:03:48.370Z,15584
2018-09-04T11:04:49.787Z,15204
2018-09-04T11:05:51.238Z,14796
2018-09-04T11:06:52.664Z,8816
2018-09-04T11:07:54.111Z,6248
2018-09-04T11:08:55.590Z,5976
2018-09-04T11:09:57.148Z,5988
2018-09-04T11:10:58.429Z,8212
2018-09-04T11:11:59.893Z,7772
2018-09-04T11:13:01.351Z,7328
2018-09-04T11:14:02.774Z,7284
2018-09-04T11:15:04.170Z,7096
2018-09-04T11:16:05.683Z,6572
2018-09-04T11:17:07.089Z,5144
2018-09-04T11:18:08.554Z,4284
2018-09-04T11:19:09.953Z,3544
2018-09-04T11:20:11.404Z,3408
2018-09-04T11:21:12.804Z,3672
2018-09-04T11:22:14.218Z,3664
2018-09-04T11:23:15.636Z,3048
2018-09-04T11:24:17.115Z,2844
2018-09-04T11:25:18.584Z,2820
2018-09-04T11:26:19.992Z,2980
2018-09-04T11:27:21.434Z,3248
2018-09-04T11:28:22.841Z,3672
2018-09-04T11:29:24.304Z,4316
2018-09-04T11:30:25.775Z,5256
2018-09-04T11:31:27.222Z,6160
2018-09-04T11:32:28.667Z,7644
2018-09-04T11:33:30.062Z,15128
2018-09-04T11:34:31.562Z,15840
2018-09-04T11:35:33.089Z,15744
2018-09-04T11:36:34.555Z,13492
2018-09-04T11:37:35.989Z,8028
2018-09-04T11:38:37.457Z,8780
2018-09-04T11:39:38.860Z,7236
2018-09-04T11:40:40.296Z,5964
2018-09-04T11:41:41.707Z,7024
2018-09-04T11:42:43.119Z,6308
2018-09-04T11:43:44.538Z,5744
2018-09-04T11:44:45.967Z,5440
2018-09-04T11:45:47.370Z,4248
2018-09-04T11:46:48.834Z,3476
2018-09-04T11:47:50.235Z,2964
2018-09-04T11:48:51.691Z,2600
2018-09-04T11:49:53.149Z,2376
2018-09-04T11:50:54.627Z,2264
2018-09-04T11:51:56.157Z,2180
2018-09-04T11:52:57.642Z,2172
2018-09-04T11:53:59.128Z,2292
2018-09-04T11:55:00.542Z,2504
2018-09-04T11:56:02.011Z,2936
2018-09-04T11:57:03.445Z,3340
2018-09-04T11:58:04.910Z,3920
2018-09-04T11:59:06.319Z,6068
2018-09-04T12:00:07.768Z,13472
2018-09-04T12:01:09.169Z,15040
2018-09-04T12:02:10.666Z,8408
2018-09-04T12:03:12.044Z,7608
2018-09-04T12:04:13.478Z,6144
2018-09-04T12:05:14.880Z,5276
2018-09-04T12:06:16.287Z,5064
2018-09-04T12:07:17.759Z,5144
2018-09-04T12:08:19.176Z,4700
2018-09-04T12:09:20.600Z,5468
2018-09-04T12:10:22.005Z,7292
2018-09-04T12:11:23.407Z,15296
2018-09-04T12:12:24.948Z,14748
2018-09-04T12:13:26.295Z,15648
2018-09-04T12:14:27.742Z,15744
2018-09-04T12:15:29.150Z,14440
2018-09-04T12:16:30.586Z,14788
2018-09-04T12:17:32.025Z,14924
2018-09-04T12:18:33.419Z,14940
2018-09-04T12:19:34.836Z,15000
2018-09-04T12:20:36.307Z,15360
2018-09-04T12:21:37.679Z,10212
2018-09-04T12:22:39.078Z,15020
2018-09-04T12:23:40.540Z,15904
2018-09-04T12:24:41.977Z,16032
2018-09-04T12:25:43.417Z,14700
2018-09-04T12:26:44.909Z,15168
2018-09-04T12:27:46.378Z,11128
2018-09-04T12:28:47.797Z,8144
2018-09-04T12:29:49.246Z,8636
2018-09-04T12:30:50.674Z,14724
2018-09-04T12:31:52.090Z,10168
2018-09-04T12:32:53.524Z,14220
2018-09-04T12:33:55.048Z,13008
2018-09-04T12:34:56.410Z,14724
2018-09-04T12:35:57.882Z,14276
2018-09-04T12:36:59.284Z,10548
2018-09-04T12:38:00.710Z,10024
2018-09-04T12:39:02.158Z,10908
2018-09-04T12:40:03.615Z,7984
2018-09-04T12:41:05.090Z,13380
2018-09-04T12:42:06.540Z,10988
2018-09-04T12:43:07.999Z,10216
2018-09-04T12:44:09.505Z,11836
2018-09-04T12:45:10.904Z,13208
2018-09-04T12:46:12.312Z,11960
2018-09-04T12:47:13.711Z,9632
2018-09-04T12:48:15.196Z,12048
2018-09-04T12:49:16.597Z,8700
2018-09-04T12:50:18.071Z,6812
2018-09-04T12:51:19.469Z,6028
2018-09-04T12:52:20.922Z,12452
2018-09-04T12:53:22.356Z,14112
2018-09-04T12:54:23.824Z,14116
2018-09-04T12:55:25.242Z,13648
2018-09-04T12:56:26.711Z,13340
2018-09-04T12:57:28.179Z,4620
2018-09-04T12:58:29.580Z,4504
2018-09-04T12:59:31.032Z,4940
2018-09-04T13:00:32.464Z,5836
2018-09-04T13:01:33.926Z,13224
2018-09-04T13:02:35.328Z,14004
2018-09-04T13:03:36.735Z,14328
2018-09-04T13:04:38.201Z,14240
2018-09-04T13:05:39.651Z,14164
2018-09-04T13:06:41.062Z,14364
2018-09-04T13:07:42.498Z,14000
2018-09-04T13:08:43.948Z,13864
2018-09-04T13:09:45.394Z,13604
2018-09-04T13:10:46.894Z,12988
2018-09-04T13:11:48.355Z,12364
2018-09-04T13:12:49.788Z,12856
2018-09-04T13:13:51.251Z,13104
2018-09-04T13:14:52.619Z,5648
2018-09-04T13:15:54.040Z,5244
2018-09-04T13:16:55.547Z,7584
2018-09-04T13:17:57.083Z,4584
2018-09-04T13:18:58.481Z,4272
2018-09-04T13:19:59.896Z,4248
2018-09-04T13:21:01.334Z,4428
2018-09-04T13:22:02.853Z,4760
2018-09-04T13:23:04.249Z,5380
2018-09-04T13:24:05.684Z,10024
2018-09-04T13:25:07.106Z,11648
2018-09-04T13:26:08.573Z,6792
2018-09-04T13:27:09.997Z,6504
2018-09-04T13:28:11.400Z,12280
2018-09-04T13:29:12.874Z,12248
2018-09-04T13:30:14.247Z,11920
2018-09-04T13:31:15.693Z,9516
2018-09-04T13:32:17.193Z,6796
2018-09-04T13:33:18.614Z,8212
2018-09-04T13:34:20.167Z,6900
2018-09-04T13:35:21.538Z,5988
2018-09-04T13:36:23.033Z,5728
2018-09-04T13:37:24.459Z,5664
2018-09-04T13:38:25.960Z,5652
2018-09-04T13:39:27.399Z,5380
2018-09-04T13:40:28.838Z,5352
2018-09-04T13:41:30.261Z,5392
2018-09-04T13:42:31.704Z,5876
2018-09-04T13:43:33.149Z,8600
2018-09-04T13:44:34.610Z,10328
2018-09-04T13:45:36.066Z,10760
2018-09-04T13:46:37.511Z,11420
2018-09-04T13:47:38.918Z,11120
2018-09-04T13:48:40.374Z,11324
2018-09-04T13:49:41.956Z,11288
2018-09-04T13:50:43.331Z,11136
2018-09-04T13:51:44.786Z,11040
2018-09-04T13:52:46.211Z,11008
2018-09-04T13:53:47.694Z,11260
2018-09-04T13:54:49.105Z,11336
2018-09-04T13:55:50.531Z,11444
2018-09-04T13:56:51.931Z,11380
2018-09-04T13:57:53.303Z,11392
2018-09-04T13:58:54.742Z,11352
2018-09-04T13:59:56.235Z,11308
2018-09-04T14:00:57.681Z,11304
2018-09-04T14:01:59.094Z,11268
2018-09-04T14:03:00.582Z,11100
2018-09-04T14:04:02.008Z,11228